Time;durP1;ratioP1;P1;durP2;ratioP2;P2;SDS_P1;SDS_P2;PMS_P1;PMS_P2;Temp;Humidity;BMP_temperature;BMP_pressure;BME280_temperature;BME280_humidity;BME280_pressure;Samples;Min_cycle;Max_cycle;Signal;HPM_P1;HPM_P2
2022/12/04 00:01:51;;;;;;;45.30;21.23;;;;;;;;;;5086853;28;20040;-83
2022/12/04 00:04:16;;;;;;;42.75;21.10;;;;;;;;;;5106470;28;20067;-83
2022/12/04 00:06:42;;;;;;;44.00;20.63;;;;;;;;;;5082569;28;20470;-84
2022/12/04 00:09:09;;;;;;;49.78;21.60;;;;;;;;;;5098125;28;20048;-83
2022/12/04 00:11:35;;;;;;;45.97;21.98;;;;;;;;;;5105355;28;20051;-83
2022/12/04 00:14:04;;;;;;;44.80;20.98;;;;;;;;;;5103081;28;20036;-83
2022/12/04 00:16:32;;;;;;;44.30;22.42;;;;;;;;;;5104810;28;20082;-83
2022/12/04 00:18:58;;;;;;;47.50;22.77;;;;;;;;;;5105851;27;20071;-83
2022/12/04 00:21:24;;;;;;;46.83;22.45;;;;;;;;;;5085951;28;20052;-83
2022/12/04 00:23:50;;;;;;;46.53;22.23;;;;;;;;;;5097254;28;20101;-83
2022/12/04 00:26:18;;;;;;;44.05;21.63;;;;;;;;;;5101030;28;20043;-84
2022/12/04 00:28:44;;;;;;;47.25;21.85;;;;;;;;;;5098470;28;20071;-83
2022/12/04 00:31:12;;;;;;;43.53;22.02;;;;;;;;;;5097012;28;20044;-83
2022/12/04 00:33:38;;;;;;;45.78;21.90;;;;;;;;;;5103229;28;20493;-83
2022/12/04 00:36:05;;;;;;;43.15;21.70;;;;;;;;;;5087075;28;20040;-84
2022/12/04 00:38:31;;;;;;;44.65;21.40;;;;;;;;;;5105257;28;20065;-83
2022/12/04 00:40:59;;;;;;;42.67;21.63;;;;;;;;;;5105499;28;20546;-83
2022/12/04 00:43:26;;;;;;;46.50;23.60;;;;;;;;;;5105678;28;20563;-83
2022/12/04 00:45:52;;;;;;;45.78;21.27;;;;;;;;;;5104796;28;20138;-83
2022/12/04 00:48:18;;;;;;;45.45;22.20;;;;;;;;;;5104373;28;20130;-82
2022/12/04 00:50:44;;;;;;;44.45;22.38;;;;;;;;;;5106288;28;20051;-82
2022/12/04 00:53:10;;;;;;;41.25;21.15;;;;;;;;;;5105029;28;20739;-82
2022/12/04 00:55:40;;;;;;;43.00;21.63;;;;;;;;;;5106580;28;20043;-82
2022/12/04 00:58:06;;;;;;;45.47;22.13;;;;;;;;;;5096838;28;20078;-82
2022/12/04 01:00:33;;;;;;;46.33;22.75;;;;;;;;;;5102595;28;20071;-82
2022/12/04 01:02:59;;;;;;;46.28;21.70;;;;;;;;;;5101398;28;20048;-82
2022/12/04 01:05:25;;;;;;;42.22;21.13;;;;;;;;;;5103694;28;20055;-82
2022/12/04 01:07:53;;;;;;;46.92;22.13;;;;;;;;;;5088151;28;20043;-82
2022/12/04 01:10:19;;;;;;;45.22;22.23;;;;;;;;;;5106473;28;20044;-82
2022/12/04 01:12:47;;;;;;;45.17;21.98;;;;;;;;;;5083019;28;20052;-82
2022/12/04 01:15:13;;;;;;;45.58;21.95;;;;;;;;;;5105250;28;20126;-83
2022/12/04 01:17:39;;;;;;;44.38;21.60;;;;;;;;;;5105239;28;20123;-82
2022/12/04 01:20:05;;;;;;;46.65;21.92;;;;;;;;;;5107063;28;20101;-82
2022/12/04 01:22:31;;;;;;;47.58;21.77;;;;;;;;;;5102846;28;20039;-82
2022/12/04 01:24:57;;;;;;;49.28;22.65;;;;;;;;;;5105271;28;20052;-82
2022/12/04 01:27:23;;;;;;;46.38;22.40;;;;;;;;;;5100733;28;20048;-82
2022/12/04 01:29:49;;;;;;;49.05;22.35;;;;;;;;;;5106167;28;20060;-82
2022/12/04 01:32:16;;;;;;;45.47;21.38;;;;;;;;;;5104326;28;21066;-82
2022/12/04 01:34:42;;;;;;;44.80;21.88;;;;;;;;;;5106225;28;20035;-81
2022/12/04 01:37:08;;;;;;;46.42;21.35;;;;;;;;;;5106475;28;20054;-82
2022/12/04 01:39:35;;;;;;;45.13;21.98;;;;;;;;;;5104000;28;20409;-82
2022/12/04 01:42:01;;;;;;;45.35;22.77;;;;;;;;;;5105188;28;20082;-82
2022/12/04 01:44:29;;;;;;;45.65;22.90;;;;;;;;;;5107160;28;20516;-82
2022/12/04 01:46:59;;;;;;;47.03;23.70;;;;;;;;;;5104371;28;20118;-82
2022/12/04 01:49:40;;;;;;;45.83;22.85;;;;;;;;;;5107205;28;20075;-82
2022/12/04 01:52:09;;;;;;;43.78;22.95;;;;;;;;;;5119511;28;20047;-82
2022/12/04 01:54:36;;;;;;;43.40;21.80;;;;;;;;;;5107124;28;20517;-81
2022/12/04 01:57:11;;;;;;;47.75;23.77;;;;;;;;;;5105787;28;20135;-82
2022/12/04 01:59:42;;;;;;;42.15;21.17;;;;;;;;;;5120559;28;20787;-81
2022/12/04 02:02:10;;;;;;;45.42;22.65;;;;;;;;;;5100306;28;20047;-81
2022/12/04 02:04:36;;;;;;;50.25;23.52;;;;;;;;;;5107175;28;20051;-82
2022/12/04 02:07:03;;;;;;;46.22;22.90;;;;;;;;;;5109827;28;20055;-82
2022/12/04 02:09:30;;;;;;;49.20;23.15;;;;;;;;;;5092895;28;20119;-82
2022/12/04 02:11:56;;;;;;;47.55;23.40;;;;;;;;;;5109832;28;20047;-82
2022/12/04 02:14:31;;;;;;;43.88;22.00;;;;;;;;;;5089201;28;20046;-82
2022/12/04 02:17:15;;;;;;;45.67;22.38;;;;;;;;;;5096697;28;20063;-82
2022/12/04 02:19:57;;;;;;;45.00;22.35;;;;;;;;;;5109426;28;20050;-82
2022/12/04 02:22:38;;;;;;;45.33;22.90;;;;;;;;;;5108005;27;20044;-81
2022/12/04 02:25:12;;;;;;;45.30;23.33;;;;;;;;;;5099628;28;20298;-82
2022/12/04 02:27:41;;;;;;;43.33;22.10;;;;;;;;;;5108329;28;20093;-82
2022/12/04 02:30:08;;;;;;;45.45;22.33;;;;;;;;;;5109357;28;20036;-81
2022/12/04 02:32:40;;;;;;;46.03;23.33;;;;;;;;;;5080043;28;20078;-82
2022/12/04 02:35:15;;;;;;;50.55;24.13;;;;;;;;;;5109643;28;20050;-82
2022/12/04 02:37:49;;;;;;;46.50;23.20;;;;;;;;;;5110110;28;20139;-81
2022/12/04 02:40:21;;;;;;;45.53;22.52;;;;;;;;;;5109782;28;20086;-82
2022/12/04 02:42:54;;;;;;;43.00;21.65;;;;;;;;;;5106004;28;20043;-82
2022/12/04 02:45:23;;;;;;;51.58;23.95;;;;;;;;;;5095595;28;20047;-82
2022/12/04 02:47:52;;;;;;;45.92;23.13;;;;;;;;;;5108278;28;20039;-82
2022/12/04 02:50:21;;;;;;;44.55;22.40;;;;;;;;;;5107283;28;20039;-82
2022/12/04 02:52:49;;;;;;;46.40;23.92;;;;;;;;;;5094229;28;20093;-82
2022/12/04 02:55:38;;;;;;;49.38;24.00;;;;;;;;;;5107949;28;20039;-82
2022/12/04 02:58:25;;;;;;;45.95;22.92;;;;;;;;;;5102675;28;20105;-82
2022/12/04 03:00:52;;;;;;;49.75;23.80;;;;;;;;;;5103903;28;20511;-82
2022/12/04 03:03:21;;;;;;;47.00;22.98;;;;;;;;;;5107222;28;20088;-82
2022/12/04 03:05:56;;;;;;;51.63;25.33;;;;;;;;;;5110257;28;20163;-81
2022/12/04 03:08:24;;;;;;;47.83;23.55;;;;;;;;;;5108280;28;20040;-82
2022/12/04 03:10:53;;;;;;;48.03;24.45;;;;;;;;;;5109664;28;20051;-83
2022/12/04 03:13:33;;;;;;;48.22;24.45;;;;;;;;;;5105671;28;20047;-82
2022/12/04 03:16:03;;;;;;;49.10;24.55;;;;;;;;;;5092135;28;20048;-81
2022/12/04 03:18:32;;;;;;;46.00;23.55;;;;;;;;;;5091599;28;20052;-81
2022/12/04 03:21:03;;;;;;;50.80;24.48;;;;;;;;;;5109160;28;20071;-82
2022/12/04 03:23:32;;;;;;;49.58;24.00;;;;;;;;;;5106877;28;20136;-81
2022/12/04 03:26:00;;;;;;;51.90;24.48;;;;;;;;;;5109199;28;20130;-81
2022/12/04 03:28:33;;;;;;;49.35;23.60;;;;;;;;;;5090433;28;20454;-81
2022/12/04 03:30:59;;;;;;;;;;;;;;;;;;5110298;28;20101;-81
2022/12/04 03:33:38;;;;;;;45.70;21.40;;;;;;;;;;5103901;28;19932;-81
2022/12/04 03:36:15;;;;;;;46.58;22.10;;;;;;;;;;5084450;28;20391;-82
2022/12/04 03:38:48;;;;;;;45.08;22.23;;;;;;;;;;5106762;28;20055;-81
2022/12/04 03:41:33;;;;;;;49.33;24.23;;;;;;;;;;5105361;28;20044;-82
2022/12/04 03:43:59;;;;;;;49.55;23.50;;;;;;;;;;5105355;28;20075;-82
2022/12/04 03:46:44;;;;;;;48.13;23.00;;;;;;;;;;5092507;28;20088;-82
2022/12/04 03:49:31;;;;;;;45.90;23.45;;;;;;;;;;5073351;28;20089;-81
2022/12/04 03:52:00;;;;;;;49.75;23.25;;;;;;;;;;5104601;27;20047;-81
2022/12/04 03:54:34;;;;;;;48.55;23.42;;;;;;;;;;5106495;28;20051;-82
2022/12/04 03:57:02;;;;;;;53.55;24.10;;;;;;;;;;5107118;28;20063;-82
2022/12/04 03:59:30;;;;;;;51.00;25.05;;;;;;;;;;5106427;28;20146;-80
2022/12/04 04:01:58;;;;;;;52.15;24.83;;;;;;;;;;5103853;28;20054;-81
2022/12/04 04:04:30;;;;;;;49.20;23.85;;;;;;;;;;5108486;27;20055;-82
2022/12/04 04:06:58;;;;;;;50.72;25.35;;;;;;;;;;5086090;28;20071;-81
2022/12/04 04:09:25;;;;;;;50.42;24.88;;;;;;;;;;5096312;28;20039;-81
2022/12/04 04:12:02;;;;;;;51.50;25.02;;;;;;;;;;5107017;28;20526;-81
2022/12/04 04:25:46;;;;;;;50.00;23.50;;;;;;;;;;5106244;28;20047;-81
2022/12/04 04:28:27;;;;;;;50.42;24.65;;;;;;;;;;5106024;28;20051;-81
2022/12/04 04:30:54;;;;;;;51.90;24.23;;;;;;;;;;5105446;28;20175;-81
2022/12/04 04:33:20;;;;;;;51.60;25.80;;;;;;;;;;5102511;28;20789;-81
2022/12/04 04:35:52;;;;;;;51.92;24.48;;;;;;;;;;5105505;28;20124;-81
2022/12/04 04:38:21;;;;;;;51.03;25.38;;;;;;;;;;5102413;28;20039;-82
2022/12/04 04:40:55;;;;;;;53.97;25.73;;;;;;;;;;5103326;27;20060;-81
2022/12/04 04:43:31;;;;;;;57.00;25.88;;;;;;;;;;5087717;28;20051;-81
2022/12/04 04:45:59;;;;;;;54.35;25.77;;;;;;;;;;5090793;28;20056;-82
2022/12/04 04:48:34;;;;;;;59.53;26.85;;;;;;;;;;5105913;28;20044;-81
2022/12/04 04:51:01;;;;;;;52.53;26.13;;;;;;;;;;5102265;28;20043;-81
2022/12/04 04:53:35;;;;;;;51.70;25.05;;;;;;;;;;5104476;28;20051;-82
2022/12/04 04:56:03;;;;;;;55.83;26.80;;;;;;;;;;5105905;28;20067;-82
2022/12/04 04:58:29;;;;;;;50.10;25.52;;;;;;;;;;5104611;28;20043;-82
2022/12/04 05:01:01;;;;;;;55.78;26.85;;;;;;;;;;5106855;28;20521;-81
2022/12/04 05:03:27;;;;;;;53.42;25.92;;;;;;;;;;5099898;28;20043;-82
2022/12/04 05:05:53;;;;;;;52.78;24.35;;;;;;;;;;5106959;28;20190;-81
2022/12/04 05:08:19;;;;;;;52.63;25.27;;;;;;;;;;5099578;28;20787;-82
2022/12/04 05:10:45;;;;;;;52.35;26.10;;;;;;;;;;5104928;28;20062;-81
2022/12/04 05:13:12;;;;;;;54.25;25.38;;;;;;;;;;5084158;28;20600;-82
2022/12/04 05:15:38;;;;;;;50.65;25.65;;;;;;;;;;5107513;28;20123;-82
2022/12/04 05:18:04;;;;;;;57.28;24.52;;;;;;;;;;5083700;28;20438;-81
2022/12/04 05:20:30;;;;;;;53.58;24.67;;;;;;;;;;5087990;28;20044;-81
2022/12/04 05:22:56;;;;;;;53.00;25.65;;;;;;;;;;5099662;28;20078;-81
2022/12/04 05:25:23;;;;;;;50.22;25.15;;;;;;;;;;5102643;28;20050;-81
2022/12/04 05:27:49;;;;;;;50.35;24.60;;;;;;;;;;5105538;28;20043;-82
2022/12/04 05:30:15;;;;;;;51.85;25.73;;;;;;;;;;5105497;28;20055;-81
2022/12/04 05:32:41;;;;;;;53.17;24.70;;;;;;;;;;5103595;28;20043;-82
2022/12/04 05:35:07;;;;;;;54.28;25.60;;;;;;;;;;5104864;28;20056;-81
2022/12/04 05:37:36;;;;;;;53.97;25.08;;;;;;;;;;5099674;28;20825;-81
2022/12/04 05:40:02;;;;;;;51.13;24.40;;;;;;;;;;5107684;28;20486;-81
2022/12/04 05:42:31;;;;;;;49.80;23.67;;;;;;;;;;5107876;28;20048;-81
2022/12/04 05:44:57;;;;;;;49.20;23.35;;;;;;;;;;5107148;28;20158;-82
2022/12/04 05:47:23;;;;;;;49.08;24.00;;;;;;;;;;5107226;28;20040;-81
2022/12/04 05:49:51;;;;;;;52.97;24.20;;;;;;;;;;5106593;28;20047;-82
2022/12/04 05:52:17;;;;;;;54.85;25.17;;;;;;;;;;5097646;28;20078;-81
2022/12/04 05:54:43;;;;;;;48.88;23.50;;;;;;;;;;5106061;28;20589;-81
2022/12/04 05:57:09;;;;;;;53.15;23.40;;;;;;;;;;5109038;28;20176;-82
2022/12/04 05:59:35;;;;;;;50.33;24.52;;;;;;;;;;5090691;28;20151;-81
2022/12/04 06:02:07;;;;;;;51.65;24.63;;;;;;;;;;5107290;28;20047;-84
2022/12/04 06:04:42;;;;;;;52.20;24.85;;;;;;;;;;5108354;28;20528;-83
2022/12/04 06:07:09;;;;;;;48.10;24.33;;;;;;;;;;5109335;28;20446;-82
2022/12/04 06:09:38;;;;;;;46.17;23.88;;;;;;;;;;5106944;28;20078;-83
2022/12/04 06:12:11;;;;;;;51.85;24.58;;;;;;;;;;5108137;28;20040;-82
2022/12/04 06:14:37;;;;;;;;;;;;;;;;;;5109397;28;20432;-82
2022/12/04 06:17:06;;;;;;;51.45;23.30;;;;;;;;;;5102733;28;19920;-82
2022/12/04 06:19:35;;;;;;;50.30;23.55;;;;;;;;;;5108999;28;20465;-82
2022/12/04 06:22:01;;;;;;;51.38;24.25;;;;;;;;;;5104088;27;20048;-82
2022/12/04 06:24:27;;;;;;;50.90;23.30;;;;;;;;;;5107987;28;20066;-82
2022/12/04 06:27:00;;;;;;;52.53;24.67;;;;;;;;;;5110594;28;20078;-82
2022/12/04 06:29:28;;;;;;;51.30;25.10;;;;;;;;;;5109489;28;20392;-82
2022/12/04 06:31:54;;;;;;;46.03;22.95;;;;;;;;;;5106736;27;20441;-82
2022/12/04 06:34:20;;;;;;;46.42;23.27;;;;;;;;;;5106669;28;20122;-82
2022/12/04 06:36:48;;;;;;;47.83;24.08;;;;;;;;;;5106297;28;20093;-81
2022/12/04 06:39:17;;;;;;;50.88;24.23;;;;;;;;;;5082151;28;20585;-81
2022/12/04 06:41:43;;;;;;;43.85;22.52;;;;;;;;;;5102554;28;20511;-83
2022/12/04 06:44:09;;;;;;;55.47;24.80;;;;;;;;;;5107579;28;20035;-84
2022/12/04 06:46:35;;;;;;;53.20;24.10;;;;;;;;;;5097232;28;20454;-82
2022/12/04 06:49:02;;;;;;;49.75;23.40;;;;;;;;;;5089250;28;20055;-83
2022/12/04 06:51:29;;;;;;;50.78;24.38;;;;;;;;;;5101785;28;20110;-82
2022/12/04 06:53:56;;;;;;;48.00;22.55;;;;;;;;;;5101125;28;20613;-83
2022/12/04 06:56:23;;;;;;;49.30;23.50;;;;;;;;;;5104681;28;20130;-82
2022/12/04 06:58:51;;;;;;;49.72;24.20;;;;;;;;;;5085367;28;20122;-80
2022/12/04 07:01:19;;;;;;;48.90;24.02;;;;;;;;;;5086287;28;20477;-82
2022/12/04 07:03:45;;;;;;;51.20;24.48;;;;;;;;;;5103709;28;20071;-81
2022/12/04 07:06:11;;;;;;;52.50;24.33;;;;;;;;;;5087728;28;20143;-82
2022/12/04 07:08:37;;;;;;;47.92;24.27;;;;;;;;;;5088544;28;20866;-82
2022/12/04 07:11:03;;;;;;;48.55;22.83;;;;;;;;;;5099455;28;20127;-82
2022/12/04 07:13:29;;;;;;;52.53;23.95;;;;;;;;;;5097006;28;20131;-83
2022/12/04 07:15:55;;;;;;;51.67;24.40;;;;;;;;;;5088962;28;20513;-83
2022/12/04 07:18:21;;;;;;;53.05;23.20;;;;;;;;;;5107338;28;20051;-83
2022/12/04 07:20:47;;;;;;;54.70;25.25;;;;;;;;;;5102897;28;20047;-83
2022/12/04 07:23:13;;;;;;;54.55;25.88;;;;;;;;;;5106420;28;20050;-82
2022/12/04 07:25:39;;;;;;;53.83;24.27;;;;;;;;;;5117369;27;20527;-83
2022/12/04 07:28:07;;;;;;;53.45;24.40;;;;;;;;;;5101827;28;20126;-83
2022/12/04 07:30:33;;;;;;;53.63;24.92;;;;;;;;;;5107301;28;20527;-84
2022/12/04 07:32:59;;;;;;;54.13;24.52;;;;;;;;;;5107599;28;20044;-83
2022/12/04 07:35:25;;;;;;;50.70;23.58;;;;;;;;;;5108483;28;20701;-82
2022/12/04 07:37:51;;;;;;;48.20;23.40;;;;;;;;;;5107997;28;20150;-82
2022/12/04 07:40:17;;;;;;;53.65;25.13;;;;;;;;;;5109273;28;20738;-80
2022/12/04 07:42:43;;;;;;;54.28;25.48;;;;;;;;;;5109395;28;20075;-81
2022/12/04 07:45:09;;;;;;;53.88;25.02;;;;;;;;;;5108512;28;20044;-80
2022/12/04 07:47:36;;;;;;;54.25;25.20;;;;;;;;;;5108567;28;20044;-79
2022/12/04 07:50:02;;;;;;;54.67;25.80;;;;;;;;;;5107723;28;20120;-80
2022/12/04 07:52:28;;;;;;;50.78;23.77;;;;;;;;;;5090602;28;20512;-79
2022/12/04 07:54:54;;;;;;;50.75;23.60;;;;;;;;;;5109341;28;20170;-80
2022/12/04 07:57:20;;;;;;;52.15;24.40;;;;;;;;;;5108896;28;20039;-79
2022/12/04 07:59:46;;;;;;;56.70;25.48;;;;;;;;;;5108227;28;20063;-80
2022/12/04 08:02:13;;;;;;;54.33;24.52;;;;;;;;;;5108274;28;20052;-80
2022/12/04 08:04:38;;;;;;;53.13;24.17;;;;;;;;;;5106732;28;20054;-80
2022/12/04 08:07:04;;;;;;;51.92;23.77;;;;;;;;;;5107765;28;20055;-81
2022/12/04 08:09:31;;;;;;;53.30;24.35;;;;;;;;;;5107419;28;20390;-81
2022/12/04 08:11:57;;;;;;;51.65;24.10;;;;;;;;;;5108914;28;20047;-82
2022/12/04 08:14:26;;;;;;;53.10;25.45;;;;;;;;;;5107882;28;20382;-81
2022/12/04 08:16:52;;;;;;;54.53;25.55;;;;;;;;;;5104307;28;20039;-81
2022/12/04 08:19:18;;;;;;;58.67;25.13;;;;;;;;;;5106875;28;20047;-81
2022/12/04 08:21:46;;;;;;;51.53;24.73;;;;;;;;;;5090912;28;20722;-82
2022/12/04 08:24:15;;;;;;;52.15;23.95;;;;;;;;;;5107749;28;20074;-82
2022/12/04 08:26:41;;;;;;;49.13;23.05;;;;;;;;;;5106982;28;20064;-82
2022/12/04 08:29:07;;;;;;;56.88;24.92;;;;;;;;;;5107241;28;20057;-81
2022/12/04 08:31:34;;;;;;;54.13;25.42;;;;;;;;;;5108387;28;20104;-81
2022/12/04 08:34:02;;;;;;;51.15;22.95;;;;;;;;;;5103622;28;20036;-85
2022/12/04 08:36:31;;;;;;;50.83;23.23;;;;;;;;;;5114643;27;20489;-85
2022/12/04 08:38:58;;;;;;;52.92;25.17;;;;;;;;;;5083257;28;20040;-86
2022/12/04 08:41:25;;;;;;;54.92;26.20;;;;;;;;;;5090284;27;20043;-86
2022/12/04 08:43:53;;;;;;;57.83;29.02;;;;;;;;;;5107479;28;20127;-86
2022/12/04 08:46:19;;;;;;;70.07;39.22;;;;;;;;;;5088188;28;20113;-86
2022/12/04 08:48:46;;;;;;;65.32;31.13;;;;;;;;;;5090286;28;20046;-87
2022/12/04 08:51:14;;;;;;;68.50;34.17;;;;;;;;;;5106027;28;20039;-86
2022/12/04 08:53:40;;;;;;;56.08;26.52;;;;;;;;;;5106877;28;20177;-84
2022/12/04 08:56:06;;;;;;;55.40;26.50;;;;;;;;;;5108030;28;20112;-87
2022/12/04 08:58:32;;;;;;;60.92;32.60;;;;;;;;;;5107281;28;20040;-87
2022/12/04 09:01:08;;;;;;;56.13;28.10;;;;;;;;;;5102676;28;20051;-86
2022/12/04 09:03:34;;;;;;;57.45;25.85;;;;;;;;;;5107640;28;20111;-86
2022/12/04 09:06:01;;;;;;;61.47;32.38;;;;;;;;;;5108564;28;20044;-85
2022/12/04 09:08:27;;;;;;;61.90;31.02;;;;;;;;;;5106074;28;20051;-86
2022/12/04 09:10:53;;;;;;;52.72;27.50;;;;;;;;;;5105394;28;20501;-87
2022/12/04 09:13:19;;;;;;;59.22;28.10;;;;;;;;;;5107649;28;20054;-85
2022/12/04 09:15:45;;;;;;;55.30;25.08;;;;;;;;;;5090514;28;20056;-87
2022/12/04 09:18:11;;;;;;;59.42;27.83;;;;;;;;;;5104401;28;20043;-84
2022/12/04 09:20:37;;;;;;;53.95;25.17;;;;;;;;;;5103968;28;20733;-85
2022/12/04 09:23:04;;;;;;;65.63;34.40;;;;;;;;;;5107255;28;20048;-86
2022/12/04 09:25:30;;;;;;;61.72;30.05;;;;;;;;;;5107527;28;20050;-85
2022/12/04 09:27:56;;;;;;;65.40;35.28;;;;;;;;;;5089890;28;20047;-85
2022/12/04 09:30:22;;;;;;;55.45;28.00;;;;;;;;;;5107420;28;20379;-86
2022/12/04 09:32:48;;;;;;;58.15;29.60;;;;;;;;;;5106981;28;20055;-86
2022/12/04 09:35:14;;;;;;;57.92;28.15;;;;;;;;;;5106875;28;20693;-86
2022/12/04 09:37:40;;;;;;;53.13;25.58;;;;;;;;;;5105103;28;20040;-86
2022/12/04 09:40:07;;;;;;;51.33;26.20;;;;;;;;;;5105568;28;20100;-86
2022/12/04 09:42:45;;;;;;;50.35;25.98;;;;;;;;;;5088894;28;20045;-86
2022/12/04 09:45:19;;;;;;;52.50;24.30;;;;;;;;;;5088743;28;20249;-86
2022/12/04 09:47:47;;;;;;;60.85;28.70;;;;;;;;;;5104822;28;20463;-85
2022/12/04 09:50:18;;;;;;;58.38;32.15;;;;;;;;;;5105143;28;20127;-85
2022/12/04 09:52:50;;;;;;;51.50;24.65;;;;;;;;;;5105992;28;20040;-86
2022/12/04 09:55:30;;;;;;;54.33;29.25;;;;;;;;;;5089934;28;20040;-87
2022/12/04 09:57:58;;;;;;;54.00;26.75;;;;;;;;;;5089799;28;20043;-86
2022/12/04 10:00:24;;;;;;;50.35;24.08;;;;;;;;;;5107617;28;20494;-86
2022/12/04 10:03:14;;;;;;;55.50;30.45;;;;;;;;;;5109171;28;20131;-86
2022/12/04 10:06:00;;;;;;;54.10;28.50;;;;;;;;;;5108103;28;20414;-86
2022/12/04 10:08:36;;;;;;;53.60;29.13;;;;;;;;;;5103387;28;20063;-86
2022/12/04 10:11:21;;;;;;;52.47;26.60;;;;;;;;;;5108291;28;20043;-86
2022/12/04 10:13:53;;;;;;;53.10;26.15;;;;;;;;;;5109971;28;20524;-86
2022/12/04 10:19:24;;;;;;;48.88;26.65;;;;;;;;;;5098341;28;20820;-86
2022/12/04 10:22:33;;;;;;;61.72;36.22;;;;;;;;;;5108158;28;20054;-85
2022/12/04 10:28:40;;;;;;;;;;;;;;;;;;;;;
2022/12/04 10:31:15;;;;;;;41.55;21.65;;;;;;;;;;5109462;28;20485;-85
2022/12/04 10:33:49;;;;;;;51.28;28.30;;;;;;;;;;5111337;28;20054;-86
2022/12/04 10:36:21;;;;;;;45.45;22.88;;;;;;;;;;5110818;28;20043;-85
2022/12/04 10:39:04;;;;;;;43.10;21.57;;;1.40;99.90;;;;;;5078500;28;20474;-86
2022/12/04 10:41:56;;;;;;;40.47;20.52;;;1.40;99.90;;;;;;5089608;28;20286;-86
2022/12/04 10:44:22;;;;;;;43.08;21.70;;;1.50;99.90;;;;;;5091868;28;20051;-85
2022/12/04 10:47:23;;;;;;;39.67;21.23;;;1.60;99.90;;;;;;5091363;28;20062;-85
2022/12/04 10:50:22;;;;;;;43.85;20.10;;;1.60;99.90;;;;;;5073426;28;20444;-85
2022/12/04 10:53:10;;;;;;;52.72;28.48;;;1.50;99.90;;;;;;5074416;28;20043;-86
2022/12/04 10:55:47;;;;;;;43.05;21.73;;;1.60;99.90;;;;;;5110799;28;20130;-87
2022/12/04 10:58:25;;;;;;;44.05;21.83;;;1.70;99.90;;;;;;5110133;28;20108;-86
2022/12/04 11:09:43;;;;;;;39.63;20.05;;;1.70;99.90;;;;;;4982547;28;20050;-85
2022/12/04 11:13:34;;;;;;;;;;;;;;;;;;;;;
2022/12/04 11:16:37;;;;;;;;;;;;;;;;;;;;;
2022/12/04 11:26:37;;;;;;;;;;;;;;;;;;;;;
2022/12/04 11:29:34;;;;;;;;;;;;;;;;;;;;;
2022/12/04 11:32:24;;;;;;;32.85;16.75;;;2.00;99.90;;;;;;5030637;28;20151;-86
2022/12/04 11:35:04;;;;;;;;;;;;;;;;;;;;;
2022/12/04 11:37:50;;;;;;;29.48;16.23;;;2.30;99.90;;;;;;5064602;28;20516;-86
2022/12/04 11:40:51;;;;;;;;;;;;;;;;;;;;;
2022/12/04 11:43:59;;;;;;;;;;;;;;;;;;;;;
2022/12/04 11:47:24;;;;;;;;;;;;;;;;;;;;;
2022/12/04 11:50:34;;;;;;;30.25;16.50;;;2.30;99.90;;;;;;5006624;28;20575;-85
2022/12/04 11:53:06;;;;;;;33.60;20.73;;;2.10;99.90;;;;;;5001357;28;20922;-86
2022/12/04 11:55:59;;;;;;;28.77;17.70;;;2.30;99.90;;;;;;4991445;28;20168;-86
2022/12/04 11:59:25;;;;;;;34.33;19.20;;;2.30;99.90;;;;;;5006981;28;20490;-86
2022/12/04 12:02:14;;;;;;;;;;;2.20;99.90;;;;;;5091948;28;20093;-86
2022/12/04 12:05:48;;;;;;;;;;;;;;;;;;;;;
2022/12/04 12:15:36;;;;;;;;;;;;;;;;;;;;;
2022/12/04 12:18:27;;;;;;;;;;;;;;;;;;;;;
2022/12/04 12:21:41;;;;;;;;;;;;;;;;;;;;;
2022/12/04 12:25:03;;;;;;;29.38;15.32;;;3.80;99.90;;;;;;5104005;27;20056;-88
2022/12/04 12:28:37;;;;;;;32.65;16.20;;;2.10;99.90;;;;;;5086683;28;20044;-88
2022/12/04 12:32:10;;;;;;;27.58;14.63;;;3.30;99.90;;;;;;5069588;28;20040;-87
2022/12/04 12:39:24;;;;;;;26.23;14.52;;;2.90;99.90;;;;;;5096784;28;20107;-87
2022/12/04 12:46:39;;;;;;;27.58;14.85;;;2.60;99.90;;;;;;5015705;28;20052;-87
2022/12/04 12:53:52;;;;;;;25.38;15.02;;;3.80;99.90;;;;;;5016441;28;20048;-87
2022/12/04 12:56:37;;;;;;;27.92;14.27;;;2.40;99.90;;;;;;5025434;28;20087;-85
2022/12/04 13:07:22;;;;;;;25.60;14.23;;;;;;;;;;4974866;28;20078;-87
2022/12/04 13:10:00;;;;;;;27.17;14.30;;;;;;;;;;4980293;28;20143;-87
2022/12/04 13:12:27;;;;;;;25.15;14.52;;;2.30;99.90;;;;;;5083006;28;20128;-88
2022/12/04 13:14:54;;;;;;;27.48;15.10;;;;;;;;;;5082397;28;20093;-87
2022/12/04 13:17:27;;;;;;;26.98;14.90;;;2.50;99.90;;;;;;5106159;28;20450;-85
2022/12/04 13:19:56;;;;;;;28.30;14.80;;;1.20;99.90;;;;;;5109034;28;20066;-86
2022/12/04 13:22:52;;;;;;;30.65;18.10;;;2.40;99.90;;;;;;5107082;28;20113;-87
2022/12/04 13:25:25;;;;;;;34.03;21.08;;;3.00;99.90;;;;;;5091514;28;20054;-87
2022/12/04 13:28:11;;;;;;;;;;;;;;;;;;;;;
2022/12/04 13:31:23;;;;;;;;;;;;;;;;;;;;;
2022/12/04 13:37:37;;;;;;;28.85;16.70;;;2.30;99.90;;;;;;5082632;28;20113;-86
2022/12/04 13:40:46;;;;;;;25.85;14.20;;;2.20;99.90;;;;;;5088310;28;20533;-86
2022/12/04 13:43:43;;;;;;;25.10;14.90;;;2.70;99.90;;;;;;5028324;28;20140;-86
2022/12/04 13:46:39;;;;;;;31.77;20.73;;;2.00;99.90;;;;;;5018503;28;20052;-86
2022/12/04 13:49:12;;;;;;;47.95;36.13;;;3.30;99.90;;;;;;5092870;28;20501;-86
2022/12/04 13:51:40;;;;;;;34.95;21.92;;;2.40;99.90;;;;;;5106602;28;20490;-86
2022/12/04 13:57:50;;;;;;;;;;;;;;;;;;;;;
2022/12/04 14:04:02;;;;;;;29.13;16.90;;;3.10;99.90;;;;;;5084515;28;20216;-87
2022/12/04 14:10:09;;;;;;;58.65;34.97;;;2.70;99.90;;;;;;5074566;28;20057;-87
2022/12/04 14:13:32;;;;;;;;;;;;;;;;;;;;;
2022/12/04 14:16:21;;;;;;;28.17;15.70;;;3.00;99.90;;;;;;5089522;28;20085;-87
2022/12/04 14:20:02;;;;;;;31.75;16.63;;;2.30;99.90;;;;;;5095085;28;20078;-87
2022/12/04 14:23:02;;;;;;;30.08;16.88;;;2.40;99.90;;;;;;5111193;28;20172;-87
2022/12/04 14:25:55;;;;;;;38.78;25.15;;;4.10;99.90;;;;;;5093386;28;20121;-87
2022/12/04 14:40:13;;;;;;;;;;;;;;;;;;;;;
2022/12/04 14:44:01;;;;;;;;;;;;;;;;;;;;;
2022/12/04 14:47:25;;;;;;;64.55;33.65;;;2.30;99.90;;;;;;5024486;28;20057;-88
2022/12/04 14:50:39;;;;;;;;;;;;;;;;;;;;;
2022/12/04 14:57:06;;;;;;;29.23;16.23;;;2.30;99.90;;;;;;4990940;28;20529;-85
2022/12/04 15:00:03;;;;;;;30.70;16.20;;;2.20;99.90;;;;;;5034939;28;20075;-87
2022/12/04 15:03:11;;;;;;;;;;;;;;;;;;;;;
2022/12/04 15:16:30;;;;;;;33.78;19.50;;;2.20;99.90;;;;;;5098624;28;20058;-86
2022/12/04 15:23:20;;;;;;;31.35;20.10;;;3.10;99.90;;;;;;5106290;28;20055;-87
2022/12/04 15:32:51;;;;;;;;;;;;;;;;;;;;;
2022/12/04 15:35:59;;;;;;;29.80;17.33;;;2.30;99.90;;;;;;5090146;28;20043;-88
2022/12/04 15:39:01;;;;;;;;;;;;;;;;;;;;;
2022/12/04 15:42:24;;;;;;;29.67;15.90;;;3.00;99.90;;;;;;5090444;28;20087;-88
2022/12/04 15:51:32;;;;;;;31.40;17.08;;;2.80;99.90;;;;;;5026893;28;20053;-86
2022/12/04 15:58:17;;;;;;;29.83;16.92;;;2.40;99.90;;;;;;5002161;28;20056;-88
2022/12/04 16:01:04;;;;;;;;;;;;;;;;;;;;;
2022/12/04 16:07:41;;;;;;;;;;;;;;;;;;;;;
2022/12/04 16:10:21;;;;;;;29.17;16.27;;;3.00;99.90;;;;;;5054016;28;20496;-88
2022/12/04 16:13:26;;;;;;;35.42;22.98;;;3.40;99.90;;;;;;5082604;28;20048;-87
2022/12/04 16:15:58;;;;;;;27.50;15.93;;;2.50;99.90;;;;;;5084571;28;20051;-88
2022/12/04 16:18:28;;;;;;;29.20;16.20;;;2.40;99.90;;;;;;5091736;28;20075;-87
2022/12/04 16:21:08;;;;;;;29.17;16.90;;;2.50;99.90;;;;;;5109429;28;20115;-87
2022/12/04 16:24:03;;;;;;;;;;;;;;;;;;;;;
2022/12/04 16:40:28;;;;;;;30.13;15.88;;;2.60;99.90;;;;;;5009244;28;20057;-89
2022/12/04 16:47:04;;;;;;;;;;;;;;;;;;;;;
2022/12/04 16:56:59;;;;;;;36.42;17.00;;;1.80;99.90;;;;;;5018717;28;20060;-88
2022/12/04 16:59:32;;;;;;;69.75;45.00;;;2.80;99.90;;;;;;5106370;28;20145;-90
2022/12/04 17:02:00;;;;;;;40.20;22.55;;;3.20;99.90;;;;;;5091341;28;20517;-89
2022/12/04 17:04:47;;;;;;;;;;;;;;;;;;;;;
2022/12/04 17:07:28;;;;;;;48.20;29.85;;;2.70;99.90;;;;;;5096492;28;20062;-89
2022/12/04 17:10:28;;;;;;;34.53;18.75;;;2.80;99.90;;;;;;5108427;28;20055;-89
2022/12/04 17:12:54;;;;;;;51.92;34.05;;;2.70;99.90;;;;;;5091325;28;20044;-89
2022/12/04 17:18:54;;;;;;;35.78;19.63;;;2.80;99.90;;;;;;5088708;28;20055;-88
2022/12/04 17:22:19;;;;;;;38.67;19.73;;;2.20;99.90;;;;;;5087793;28;20056;-89
2022/12/04 17:25:47;;;;;;;;;;;;;;;;;;;;;
2022/12/04 17:28:21;;;;;;;45.28;27.33;;;3.40;99.90;;;;;;5087296;28;20052;-88
2022/12/04 17:30:57;;;;;;;43.53;24.67;;;2.60;99.90;;;;;;5071060;28;20048;-89
2022/12/04 17:36:55;;;;;;;;;;;;;;;;;;;;;
2022/12/04 17:39:42;;;;;;;38.35;21.27;;;3.30;99.90;;;;;;5109888;28;20394;-88
2022/12/04 17:42:10;;;;;;;35.00;21.95;;;2.90;99.90;;;;;;5095092;28;20047;-88
2022/12/04 17:45:16;;;;;;;50.75;32.17;;;3.60;99.90;;;;;;5112148;28;20044;-89
2022/12/04 17:48:08;;;;;;;32.33;18.98;;;3.60;99.90;;;;;;5083291;28;20140;-89
2022/12/04 17:51:01;;;;;;;36.35;18.88;;;3.50;99.90;;;;;;5111082;28;20382;-89
2022/12/04 17:53:40;;;;;;;35.63;19.42;;;3.50;99.90;;;;;;5112398;28;20051;-89